Flight Track Log - Related Links

Times and Time Zones

All times are in EDT time to prevent confusion due to time zone crossing. See the FDX739 flight status page for this flight to view local times or setup timezone preferences in your user account.

Time Position Orientation Groundspeed Altitude Reporting Facility
EDT Latitude Longitude Course Direction KTS MPH feet Rate Location/Type
Wed 04:19:02 PM 35.0167 -89.9667 168° South 173 199 1,100  Level KMEM
Wed 04:20:14 PM 34.9500 -89.9500 168° South 238 274 3,000 2,182 Climbing KMEM
Wed 04:21:14 PM 34.9333 -89.8833 107° East 277 319 5,900 2,850 Climbing KMEM
Wed 04:22:14 PM 34.9500 -89.7833 78° East 285 328 8,700 2,923 Climbing KMEM
Wed 04:22:32 PM 34.9664 -89.7642 44° Northeast 294 338 9,700 1,823 Climbing Memphis Center
Wed 04:23:33 PM 35.0056 -89.6803 60° Northeast 358 412 11,100 1,550 Climbing Memphis Center
Wed 04:24:32 PM 35.0528 -89.5683 63° Northeast 364 419 12,800 2,118 Climbing Memphis Center
Wed 04:25:32 PM 35.1042 -89.4483 62° Northeast 382 440 15,300 2,331 Climbing Memphis Center
Wed 04:26:33 PM 35.1575 -89.3233 62° Northeast 403 464 17,500 2,300 Climbing Memphis Center
Wed 04:27:32 PM 35.2147 -89.1956 61° Northeast 414 476 19,900 2,168 Climbing Memphis Center
Wed 04:28:32 PM 35.2739 -89.0600 62° Northeast 414 476 21,800 1,750 Climbing Memphis Center
Wed 04:29:32 PM 35.3369 -88.9317 59° Northeast 424 488 23,400 1,500 Climbing Memphis Center
Wed 04:30:32 PM 35.4022 -88.8006 59° Northeast 435 501 24,800 1,357 Climbing Memphis Center
Wed 04:36:32 PM 35.9670 -88.1970 59° Northeast 453 521 32,900 1,425 Climbing FlightAware ADS-B
Wed 04:37:12 PM 36.0380 -88.1210 41° Northeast 449 517 34,300 1,482 Climbing FlightAware ADS-B
Wed 04:37:57 PM 36.1050 -88.0480 41° Northeast 443 510 35,000 494 Climbing FlightAware ADS-B
Wed 04:38:37 PM 36.1650 -87.9830 41° Northeast 442 509 35,000  Level FlightAware ADS-B
Wed 04:39:17 PM 36.2280 -87.9140 41° Northeast 444 511 35,000  Level FlightAware ADS-B
Wed 04:40:02 PM 36.2990 -87.8370 41° Northeast 446 513 35,000  Level FlightAware ADS-B
Wed 04:40:42 PM 36.3610 -87.7690 41° Northeast 445 512 35,000  Level FlightAware ADS-B
Wed 04:41:27 PM 36.4300 -87.6920 42° Northeast 446 513 35,000  Level FlightAware ADS-B
Wed 04:42:07 PM 36.4860 -87.6310 41° Northeast 446 513 35,000  Level FlightAware ADS-B
Wed 04:42:52 PM 36.5620 -87.5470 42° Northeast 449 517 35,000  Level FlightAware ADS-B
Wed 04:43:32 PM 36.6250 -87.4780 41° Northeast 451 519 35,000  Level FlightAware ADS-B
Wed 04:44:12 PM 36.6860 -87.4090 42° Northeast 450 518 35,000  Level FlightAware ADS-B
Wed 04:44:57 PM 36.7540 -87.3330 42° Northeast 451 519 35,000 71 Level FlightAware ADS-B
Wed 04:45:37 PM 36.8180 -87.2630 41° Northeast 451 519 35,100  Climbing FlightAware ADS-B
Wed 04:46:22 PM 36.8900 -87.1820 42° Northeast 450 518 35,000 -71 Descending FlightAware ADS-B
Wed 04:47:02 PM 36.9500 -87.1140 42° Northeast 449 517 35,000  Level FlightAware ADS-B
Wed 04:47:42 PM 37.0130 -87.0450 41° Northeast 448 516 35,000  Level FlightAware ADS-B
Wed 04:48:27 PM 37.0810 -86.9660 43° Northeast 448 516 35,000  Level FlightAware ADS-B
Wed 04:49:10 PM 37.1503 -86.8899 41° Northeast 447 514 35,000  Level FlightAware ADS-B
Wed 04:49:42 PM 37.1991 -86.8344 42° Northeast 446 513 35,000  Level FlightAware ADS-B
Wed 04:50:32 PM 37.2720 -86.7510 42° Northeast 446 513 35,000  Level FlightAware ADS-B
Wed 04:51:12 PM 37.3330 -86.6810 42° Northeast 447 514 35,000  Level FlightAware ADS-B
Wed 04:51:52 PM 37.3970 -86.6090 42° Northeast 451 519 35,000  Level FlightAware ADS-B
Wed 04:52:16 PM 37.4369 -86.5633 42° Northeast 453 521 35,000  Level FlightAware ADS-B
Wed 04:52:48 PM 37.4858 -86.5084 42° Northeast 454 522 35,000  Level FlightAware ADS-B
Wed 04:53:42 PM 37.5700 -86.4119 42° Northeast 457 526 35,000  Level FlightAware ADS-B
Wed 04:54:42 PM 37.6570 -86.3110 43° Northeast 460 529 35,000  Level FlightAware ADS-B
Wed 04:55:27 PM 37.7310 -86.2270 42° Northeast 465 535 35,000  Level FlightAware ADS-B
Wed 04:56:07 PM 37.7960 -86.1510 43° Northeast 469 540 35,000 75 Level FlightAware ADS-B
Wed 04:56:47 PM 37.8600 -86.0770 42° Northeast 470 541 35,100 75 Climbing FlightAware ADS-B
Wed 04:57:27 PM 37.9250 -86.0010 43° Northeast 470 541 35,100 -71 Level FlightAware ADS-B
Wed 04:58:12 PM 37.9980 -85.9150 43° Northeast 467 537 35,000 -67 Descending FlightAware ADS-B
Wed 04:58:57 PM 38.0630 -85.8270 47° Northeast 471 542 35,000 -282 Level FlightAware ADS-B
Wed 04:59:37 PM 38.1130 -85.7390 54° Northeast 474 545 34,600 -750 Descending FlightAware ADS-B
Wed 05:00:17 PM 38.1650 -85.6490 54° Northeast 474 545 34,000 -424 Descending FlightAware ADS-B
Wed 05:01:02 PM 38.2320 -85.5540 48° Northeast 462 532 34,000 -141 Level FlightAware ADS-B
Wed 05:01:42 PM 38.2980 -85.4820 41° Northeast 463 533 33,800 -635 Descending FlightAware ADS-B
Wed 05:02:27 PM 38.3680 -85.4080 40° Northeast 462 532 33,100 -1,059 Descending FlightAware ADS-B
Wed 05:03:07 PM 38.4350 -85.3360 40° Northeast 464 534 32,300 -1,200 Descending FlightAware ADS-B
Wed 05:03:47 PM 38.4970 -85.2680 41° Northeast 464 534 31,500 -918 Descending FlightAware ADS-B
Wed 05:04:32 PM 38.5740 -85.1850 40° Northeast 462 532 31,000 -353 Descending FlightAware ADS-B
Wed 05:05:12 PM 38.6410 -85.1140 40° Northeast 454 522 31,000  Level FlightAware ADS-B
Wed 05:05:52 PM 38.7040 -85.0510 38° Northeast 454 522 31,000 -212 Level FlightAware ADS-B
Wed 05:06:37 PM 38.7850 -84.9850 32° Northeast 448 516 30,700 -1,412 Descending FlightAware ADS-B
Wed 05:07:17 PM 38.8580 -84.9350 28° Northeast 444 511 29,000 -2,682 Descending FlightAware ADS-B
Wed 05:08:02 PM 38.9350 -84.8710 33° Northeast 439 505 26,900 -2,894 Descending FlightAware ADS-B
Wed 05:08:42 PM 38.9880 -84.7950 48° Northeast 447 514 24,900 -2,320 Descending FlightAware ADS-B
Wed 05:09:17 PM 39.0170 -84.7080 67° East 437 503 24,000 -635 Descending FlightAware ADS-B
Wed 05:10:07 PM 39.0570 -84.6030 64° Northeast 436 502 24,000  Level FlightAware ADS-B
Wed 05:10:47 PM 39.0870 -84.5230 64° Northeast 436 502 24,000  Level FlightAware ADS-B
Wed 05:11:27 PM 39.1170 -84.4440 64° Northeast 436 502 24,000  Level FlightAware ADS-B
Wed 05:12:07 PM 39.1470 -84.3640 64° Northeast 436 502 24,000  Level FlightAware ADS-B
Wed 05:12:47 PM 39.1770 -84.2850 64° Northeast 436 502 24,000 -2,139 Level FlightAware ADS-B
Wed 05:15:57 PM 39.4180 -83.8750 53° Northeast 363 418 15,800 -2,322 Descending FlightAware ADS-B
Wed 05:16:37 PM 39.4490 -83.7940 64° Northeast 356 410 15,100 -1,059 Descending FlightAware ADS-B
Wed 05:17:22 PM 39.4810 -83.7100 64° Northeast 352 405 14,300 -1,129 Descending FlightAware ADS-B
Wed 05:18:02 PM 39.5110 -83.6340 63° Northeast 352 405 13,500 -1,520 Descending FlightAware ADS-B
Wed 05:18:37 PM 39.5340 -83.5700 65° Northeast 344 396 12,400 -1,482 Descending FlightAware ADS-B
Wed 05:19:27 PM 39.5670 -83.4810 64° Northeast 313 360 11,400 -933 Descending FlightAware ADS-B
Wed 05:20:07 PM 39.5920 -83.4160 63° Northeast 286 329 11,000 -282 Descending FlightAware ADS-B
Wed 05:20:52 PM 39.6150 -83.3520 65° Northeast 283 326 11,000  Level FlightAware ADS-B
Wed 05:21:32 PM 39.6350 -83.3000 63° Northeast 283 326 11,000  Level FlightAware ADS-B
Wed 05:22:12 PM 39.6540 -83.2490 64° Northeast 283 326 11,000 -3,505 Level FlightAware ADS-B
Wed 05:23:13 PM 39.6808 -83.1503 64° Northeast 266 306 5,100 -3,769 Descending Indianapolis Center
Wed 05:24:13 PM 39.7133 -83.0697 62° Northeast 211 243 3,400 -1,339 Descending Indianapolis Center
Wed 05:25:14 PM 39.7439 -83.0217 50° Northeast 185 213 2,400 -885 Descending Indianapolis Center
Wed 05:26:15 PM 39.7761 -82.9794 45° Northeast 151 174 1,600 -661 Descending Indianapolis Center
Wed 05:27:21 PM 39.8056 -82.9425 44° Northeast 158 182 1,000 -545 Descending Indianapolis Center
Wed 05:29:00 PM 39.8138 -82.9278 90° East  Level Estimated

Login

Don't have an account? Register now (free) for customized features, flight alerts, and more!